Time;durP1;ratioP1;P1;durP2;ratioP2;P2;SDS_P1;SDS_P2;PMS_P1;PMS_P2;Temp;Humidity;BMP_temperature;BMP_pressure;BME280_temperature;BME280_humidity;BME280_pressure;Samples;Min_cycle;Max_cycle;Signal;HPM_P1;HPM_P2
2022/01/31 00:20:07;;;;;;;12.98;3.70;;;;;;;5.17;100.00;100637.31;5433360;23;20051;-72
2022/01/31 00:22:53;;;;;;;24.05;3.90;;;;;;;5.30;100.00;100633.00;4957655;29;20121;-73
2022/01/31 00:25:39;;;;;;;13.73;3.70;;;;;;;5.09;100.00;100639.00;4954491;28;20169;-73
2022/01/31 00:28:25;;;;;;;22.88;3.30;;;;;;;5.23;100.00;100639.91;4957261;29;20101;-73
2022/01/31 05:27:50;;;;;;;17.58;3.33;;;;;;;2.92;100.00;100715.84;5091223;23;20436;-72
2022/01/31 05:30:36;;;;;;;16.65;3.42;;;;;;;3.01;100.00;100718.53;4956950;28;20038;-72
2022/01/31 05:33:21;;;;;;;23.40;3.40;;;;;;;2.86;100.00;100731.25;4956978;29;20114;-72
2022/01/31 05:36:07;;;;;;;18.90;3.22;;;;;;;2.87;100.00;100733.03;4955624;28;20066;-71
2022/01/31 05:38:53;;;;;;;15.32;3.22;;;;;;;2.85;100.00;100736.44;4948257;29;20111;-73
2022/01/31 05:41:39;;;;;;;28.30;3.72;;;;;;;2.88;100.00;100736.47;4954528;29;20027;-73
2022/01/31 05:44:28;;;;;;;15.63;3.35;;;;;;;2.97;100.00;100747.81;4951298;29;20031;-72
2022/01/31 06:50:55;;;;;;;25.02;4.05;;;;;;;3.66;100.00;100771.97;6045349;23;20038;31
2022/01/31 06:53:41;;;;;;;12.80;4.18;;;;;;;3.93;100.00;100759.31;4901722;29;20044;-72
2022/01/31 06:56:33;;;;;;;14.52;4.15;;;;;;;4.19;100.00;100752.63;4888614;29;20135;-71
2022/01/31 06:59:18;;;;;;;15.95;3.67;;;;;;;3.76;100.00;100753.09;4888726;29;20477;-73
2022/01/31 07:02:04;;;;;;;21.73;4.05;;;;;;;4.36;100.00;100748.47;4901963;29;20040;-73
2022/01/31 07:04:50;;;;;;;13.43;3.60;;;;;;;4.48;100.00;100745.06;4889535;29;20526;-74
2022/01/31 07:07:36;;;;;;;15.45;3.00;;;;;;;4.62;100.00;100739.13;4901428;29;20032;-73
2022/01/31 07:10:22;;;;;;;17.35;3.88;;;;;;;4.55;100.00;100720.94;4901705;29;20048;-74
2022/01/31 08:04:24;;;;;;;14.23;3.75;;;;;;;6.90;88.54;100704.94;4890976;29;19962;-74
2022/01/31 08:07:10;;;;;;;15.25;4.63;;;;;;;7.08;87.72;100704.84;4884633;29;20032;-72
2022/01/31 08:09:55;;;;;;;18.02;4.20;;;;;;;7.31;85.60;100699.59;4874672;29;20044;-73
2022/01/31 08:12:42;;;;;;;13.30;3.88;;;;;;;7.57;83.42;100695.09;4871526;29;20121;-73
2022/01/31 08:15:29;;;;;;;20.02;4.20;;;;;;;7.58;81.48;100704.63;4888447;29;20055;-72
2022/01/31 08:18:15;;;;;;;14.73;3.53;;;;;;;7.68;80.92;100706.31;4871344;29;20044;-74
2022/01/31 08:21:03;;;;;;;17.83;3.80;;;;;;;8.17;79.21;100707.72;4872557;29;20061;-71
2022/01/31 08:23:50;;;;;;;13.60;4.00;;;;;;;7.81;78.29;100705.38;4871712;29;20055;-73
2022/01/31 10:10:22;;;;;;;11.02;3.60;;;;;;;9.14;61.90;100617.03;5996822;23;20030;31
2022/01/31 10:16:43;;;;;;;13.43;3.50;;;;;;;9.29;60.89;100593.31;4888839;29;20381;-71
2022/01/31 10:19:44;;;;;;;10.50;2.53;;;;;;;9.22;59.72;100589.03;4902218;29;20052;-71
2022/01/31 10:22:32;;;;;;;8.75;3.13;;;;;;;9.34;59.91;100583.63;4901977;29;20060;-72
2022/01/31 12:01:27;;;;;;;22.35;3.83;;;;;;;10.48;45.79;100460.38;5233173;23;20047;-71
2022/01/31 12:04:13;;;;;;;8.95;3.15;;;;;;;10.70;45.65;100466.84;4957441;29;20043;-71
2022/01/31 12:07:19;;;;;;;12.35;2.78;;;;;;;10.71;45.82;100447.63;4957659;28;20118;-72
2022/01/31 12:10:20;;;;;;;11.50;3.72;;;;;;;11.04;45.46;100444.22;4958505;29;20026;-72
2022/01/31 12:13:42;;;;;;;12.20;3.17;;;;;;;11.14;45.43;100436.13;4958009;29;20038;-71
2022/01/31 12:22:46;;;;;;;14.25;3.03;;;;;;;10.77;45.65;100455.34;4957716;29;20027;-72
2022/01/31 12:25:32;;;;;;;10.73;2.95;;;;;;;10.81;45.39;100452.59;4958552;28;20030;-71
2022/01/31 12:28:35;;;;;;;7.57;3.17;;;;;;;10.83;44.88;100440.34;4957530;29;20031;-71
2022/01/31 12:31:42;;;;;;;15.45;2.78;;;;;;;10.72;44.91;100449.38;4958627;28;20039;-71
2022/01/31 12:34:36;;;;;;;10.43;3.10;;;;;;;10.45;45.86;100440.31;4958145;28;20106;-71
2022/01/31 12:37:25;;;;;;;7.85;2.60;;;;;;;10.53;45.24;100441.00;4956021;28;20028;-71
2022/01/31 12:40:29;;;;;;;9.82;2.85;;;;;;;10.80;44.69;100436.94;4950167;28;20023;-72
2022/01/31 12:43:35;;;;;;;8.55;2.92;;;;;;;10.55;44.07;100438.38;4957162;29;20042;-72
2022/01/31 12:46:20;;;;;;;7.95;2.85;;;;;;;10.52;44.25;100436.69;4956709;28;20456;-71
2022/01/31 12:49:10;;;;;;;7.38;2.60;;;;;;;10.52;44.00;100447.16;4957338;29;20069;-72
2022/01/31 12:52:03;;;;;;;9.02;2.85;;;;;;;10.70;42.91;100433.66;4956637;29;20488;-72
2022/01/31 12:54:53;;;;;;;8.70;2.70;;;;;;;10.42;43.77;100439.53;4956494;29;20089;-72
2022/01/31 12:57:52;;;;;;;5.93;2.50;;;;;;;10.44;43.33;100430.75;4957439;28;20078;-71
2022/01/31 18:58:05;;;;;;;21.08;9.68;;;;;;;7.64;52.76;100297.91;5895702;23;22898;-72
2022/01/31 19:00:51;;;;;;;28.35;12.02;;;;;;;7.16;53.59;100294.09;4959223;29;20051;-71
2022/01/31 19:03:38;;;;;;;34.17;12.27;;;;;;;7.16;54.13;100298.47;4959471;28;20448;-71
2022/01/31 19:06:25;;;;;;;32.03;13.82;;;;;;;7.61;53.05;100297.94;4958348;28;20027;-71
2022/01/31 19:09:15;;;;;;;27.83;11.43;;;;;;;7.78;52.86;100298.59;4953757;29;20130;-71
2022/01/31 19:12:04;;;;;;;24.63;10.82;;;;;;;7.53;53.29;100295.44;4951894;29;20031;-71
2022/01/31 19:17:35;;;;;;;23.17;9.38;;;;;;;7.55;53.02;100301.47;4959546;28;20031;-70
2022/01/31 19:20:21;;;;;;;22.38;9.68;;;;;;;7.48;53.40;100297.22;4954079;29;20027;-71
2022/01/31 19:23:07;;;;;;;23.00;9.45;;;;;;;7.31;54.05;100282.69;4958535;28;20049;-70
2022/01/31 19:25:53;;;;;;;22.95;9.18;;;;;;;7.49;53.70;100262.47;4959195;28;20110;-70
